sensor_id;sensor_type;location;lat;lon;timestamp;temperature;humidity
16136;DHT22;8173;48.354;9.248;2023-02-22T00:00:22;-0.10;99.90
16136;DHT22;8173;48.354;9.248;2023-02-22T00:02:55;-0.20;99.90
16136;DHT22;8173;48.354;9.248;2023-02-22T00:05:26;-0.20;99.90
16136;DHT22;8173;48.354;9.248;2023-02-22T00:07:56;-0.30;99.90
16136;DHT22;8173;48.354;9.248;2023-02-22T00:10:24;-0.30;99.90
16136;DHT22;8173;48.354;9.248;2023-02-22T00:12:52;-0.30;99.90
16136;DHT22;8173;48.354;9.248;2023-02-22T00:15:20;-0.30;99.90
16136;DHT22;8173;48.354;9.248;2023-02-22T00:20:15;-0.10;99.90
16136;DHT22;8173;48.354;9.248;2023-02-22T00:22:46;-0.10;99.90
16136;DHT22;8173;48.354;9.248;2023-02-22T00:25:14;-0.10;99.90
16136;DHT22;8173;48.354;9.248;2023-02-22T00:27:43;-0.10;99.90
16136;DHT22;8173;48.354;9.248;2023-02-22T00:30:14;-0.20;99.90
16136;DHT22;8173;48.354;9.248;2023-02-22T00:32:44;-0.20;99.90
16136;DHT22;8173;48.354;9.248;2023-02-22T00:35:11;-0.20;99.90
16136;DHT22;8173;48.354;9.248;2023-02-22T00:37:38;0.00;99.90
16136;DHT22;8173;48.354;9.248;2023-02-22T00:40:09;0.00;99.90
16136;DHT22;8173;48.354;9.248;2023-02-22T00:42:37;0.10;99.90
16136;DHT22;8173;48.354;9.248;2023-02-22T00:45:04;0.10;99.90
16136;DHT22;8173;48.354;9.248;2023-02-22T00:49:59;0.00;99.90
16136;DHT22;8173;48.354;9.248;2023-02-22T00:52:26;0.00;99.90
16136;DHT22;8173;48.354;9.248;2023-02-22T00:54:54;0.00;99.90
16136;DHT22;8173;48.354;9.248;2023-02-22T00:57:23;-0.10;99.90
16136;DHT22;8173;48.354;9.248;2023-02-22T00:59:50;-0.10;99.90
16136;DHT22;8173;48.354;9.248;2023-02-22T01:02:17;-0.20;99.90
16136;DHT22;8173;48.354;9.248;2023-02-22T01:07:10;-0.30;99.90
16136;DHT22;8173;48.354;9.248;2023-02-22T01:09:38;-0.40;99.90
16136;DHT22;8173;48.354;9.248;2023-02-22T01:12:06;-0.50;99.90
16136;DHT22;8173;48.354;9.248;2023-02-22T01:14:34;0.90;99.90
16136;DHT22;8173;48.354;9.248;2023-02-22T01:17:01;-0.50;99.90
16136;DHT22;8173;48.354;9.248;2023-02-22T01:19:29;-0.40;99.90
16136;DHT22;8173;48.354;9.248;2023-02-22T01:21:56;-0.40;99.90
16136;DHT22;8173;48.354;9.248;2023-02-22T01:24:23;0.70;99.90
16136;DHT22;8173;48.354;9.248;2023-02-22T01:26:51;-0.40;99.90
16136;DHT22;8173;48.354;9.248;2023-02-22T01:29:18;-0.30;99.90
16136;DHT22;8173;48.354;9.248;2023-02-22T01:31:53;-0.30;99.90
16136;DHT22;8173;48.354;9.248;2023-02-22T01:34:20;-0.30;99.90
16136;DHT22;8173;48.354;9.248;2023-02-22T01:36:48;-0.20;99.90
16136;DHT22;8173;48.354;9.248;2023-02-22T01:39:15;-0.20;99.90
16136;DHT22;8173;48.354;9.248;2023-02-22T01:41:43;-0.20;99.90
16136;DHT22;8173;48.354;9.248;2023-02-22T01:44:19;-0.30;99.90
16136;DHT22;8173;48.354;9.248;2023-02-22T01:46:46;-0.40;99.90
16136;DHT22;8173;48.354;9.248;2023-02-22T01:49:14;-0.40;99.90
16136;DHT22;8173;48.354;9.248;2023-02-22T01:51:43;-0.40;99.90
16136;DHT22;8173;48.354;9.248;2023-02-22T01:54:13;-0.30;99.90
16136;DHT22;8173;48.354;9.248;2023-02-22T01:56:46;-0.20;99.90
16136;DHT22;8173;48.354;9.248;2023-02-22T01:59:15;-0.20;99.90
16136;DHT22;8173;48.354;9.248;2023-02-22T02:01:43;-0.20;99.90
16136;DHT22;8173;48.354;9.248;2023-02-22T02:04:14;-0.20;99.90
16136;DHT22;8173;48.354;9.248;2023-02-22T02:06:42;-0.20;99.90
16136;DHT22;8173;48.354;9.248;2023-02-22T02:09:15;-0.10;99.90
16136;DHT22;8173;48.354;9.248;2023-02-22T02:11:44;0.80;99.90
16136;DHT22;8173;48.354;9.248;2023-02-22T02:14:13;-0.10;99.90
16136;DHT22;8173;48.354;9.248;2023-02-22T02:16:42;-0.20;99.90
16136;DHT22;8173;48.354;9.248;2023-02-22T02:19:17;-0.40;99.90
16136;DHT22;8173;48.354;9.248;2023-02-22T02:22:09;-0.50;99.90
16136;DHT22;8173;48.354;9.248;2023-02-22T02:25:01;-0.50;99.90
16136;DHT22;8173;48.354;9.248;2023-02-22T02:27:42;-0.50;99.90
16136;DHT22;8173;48.354;9.248;2023-02-22T02:30:33;-0.60;99.90
16136;DHT22;8173;48.354;9.248;2023-02-22T02:33:06;-0.70;99.90
16136;DHT22;8173;48.354;9.248;2023-02-22T02:35:46;-0.70;99.90
16136;DHT22;8173;48.354;9.248;2023-02-22T02:38:23;-0.80;99.90
16136;DHT22;8173;48.354;9.248;2023-02-22T02:41:01;-0.90;99.90
16136;DHT22;8173;48.354;9.248;2023-02-22T02:43:32;-0.90;99.90
16136;DHT22;8173;48.354;9.248;2023-02-22T02:46:04;-0.90;99.90
16136;DHT22;8173;48.354;9.248;2023-02-22T02:48:34;-0.80;99.90
16136;DHT22;8173;48.354;9.248;2023-02-22T02:51:04;-0.80;99.90
16136;DHT22;8173;48.354;9.248;2023-02-22T02:53:36;-0.70;99.90
16136;DHT22;8173;48.354;9.248;2023-02-22T02:56:04;-0.80;99.90
16136;DHT22;8173;48.354;9.248;2023-02-22T02:58:32;-0.80;99.90
16136;DHT22;8173;48.354;9.248;2023-02-22T03:01:13;-0.80;99.90
16136;DHT22;8173;48.354;9.248;2023-02-22T03:04:31;-0.70;99.90
16136;DHT22;8173;48.354;9.248;2023-02-22T03:13:27;-0.50;99.90
16136;DHT22;8173;48.354;9.248;2023-02-22T03:22:56;-1.00;99.90
16136;DHT22;8173;48.354;9.248;2023-02-22T03:26:18;-1.10;99.90
16136;DHT22;8173;48.354;9.248;2023-02-22T03:29:36;-1.10;99.90
16136;DHT22;8173;48.354;9.248;2023-02-22T03:32:47;-1.10;99.90
16136;DHT22;8173;48.354;9.248;2023-02-22T03:48:42;-1.20;99.90
16136;DHT22;8173;48.354;9.248;2023-02-22T03:52:03;-1.50;99.90
16136;DHT22;8173;48.354;9.248;2023-02-22T03:54:51;-1.40;99.90
16136;DHT22;8173;48.354;9.248;2023-02-22T03:58:00;-1.40;99.90
16136;DHT22;8173;48.354;9.248;2023-02-22T04:01:29;-1.30;99.90
16136;DHT22;8173;48.354;9.248;2023-02-22T04:04:11;-1.30;99.90
16136;DHT22;8173;48.354;9.248;2023-02-22T04:10:12;-1.20;99.90
16136;DHT22;8173;48.354;9.248;2023-02-22T04:16:19;-1.20;99.90
16136;DHT22;8173;48.354;9.248;2023-02-22T04:19:51;-1.20;99.90
16136;DHT22;8173;48.354;9.248;2023-02-22T04:23:17;-1.30;99.90
16136;DHT22;8173;48.354;9.248;2023-02-22T04:26:39;-1.30;99.90
16136;DHT22;8173;48.354;9.248;2023-02-22T04:32:40;-1.30;99.90
16136;DHT22;8173;48.354;9.248;2023-02-22T04:42:20;-1.40;99.90
16136;DHT22;8173;48.354;9.248;2023-02-22T04:44:50;-1.50;99.90
16136;DHT22;8173;48.354;9.248;2023-02-22T04:47:33;-1.50;99.90
16136;DHT22;8173;48.354;9.248;2023-02-22T04:50:19;-1.50;99.90
16136;DHT22;8173;48.354;9.248;2023-02-22T04:53:08;-1.40;99.90
16136;DHT22;8173;48.354;9.248;2023-02-22T04:56:06;-1.50;99.90
16136;DHT22;8173;48.354;9.248;2023-02-22T04:58:56;-1.60;99.90
16136;DHT22;8173;48.354;9.248;2023-02-22T05:01:41;-1.60;99.90
16136;DHT22;8173;48.354;9.248;2023-02-22T05:04:08;-1.70;99.90
16136;DHT22;8173;48.354;9.248;2023-02-22T05:06:37;-1.80;99.90
16136;DHT22;8173;48.354;9.248;2023-02-22T05:19:00;-1.80;99.90
16136;DHT22;8173;48.354;9.248;2023-02-22T05:21:30;-1.70;99.90
16136;DHT22;8173;48.354;9.248;2023-02-22T05:24:15;-1.70;99.90
16136;DHT22;8173;48.354;9.248;2023-02-22T05:30:26;-1.50;99.90
16136;DHT22;8173;48.354;9.248;2023-02-22T05:33:02;-1.50;99.90
16136;DHT22;8173;48.354;9.248;2023-02-22T05:42:29;-1.70;99.90
16136;DHT22;8173;48.354;9.248;2023-02-22T05:44:56;-1.60;99.90
16136;DHT22;8173;48.354;9.248;2023-02-22T05:48:32;-1.60;99.90
16136;DHT22;8173;48.354;9.248;2023-02-22T05:51:14;-1.60;99.90
16136;DHT22;8173;48.354;9.248;2023-02-22T05:54:32;-1.70;99.90
16136;DHT22;8173;48.354;9.248;2023-02-22T05:56:59;-1.70;99.90
16136;DHT22;8173;48.354;9.248;2023-02-22T05:59:56;-1.60;99.90
16136;DHT22;8173;48.354;9.248;2023-02-22T06:02:33;-1.50;99.90
16136;DHT22;8173;48.354;9.248;2023-02-22T06:05:00;-1.50;99.90
16136;DHT22;8173;48.354;9.248;2023-02-22T06:11:05;-1.30;99.90
16136;DHT22;8173;48.354;9.248;2023-02-22T06:13:33;-1.40;99.90
16136;DHT22;8173;48.354;9.248;2023-02-22T06:16:29;-1.50;99.90
16136;DHT22;8173;48.354;9.248;2023-02-22T06:19:13;-1.60;99.90
16136;DHT22;8173;48.354;9.248;2023-02-22T06:25:14;-1.60;99.90
16136;DHT22;8173;48.354;9.248;2023-02-22T06:27:45;-1.50;99.90
16136;DHT22;8173;48.354;9.248;2023-02-22T06:30:22;-1.50;99.90
16136;DHT22;8173;48.354;9.248;2023-02-22T06:36:30;-1.50;99.90
16136;DHT22;8173;48.354;9.248;2023-02-22T06:39:05;-1.50;99.90
16136;DHT22;8173;48.354;9.248;2023-02-22T06:42:15;-1.50;99.90
16136;DHT22;8173;48.354;9.248;2023-02-22T06:44:50;-1.40;99.90
16136;DHT22;8173;48.354;9.248;2023-02-22T06:47:55;-1.30;99.90
16136;DHT22;8173;48.354;9.248;2023-02-22T06:50:44;-1.10;99.90
16136;DHT22;8173;48.354;9.248;2023-02-22T06:56:18;-0.40;99.90
16136;DHT22;8173;48.354;9.248;2023-02-22T06:59:09;0.10;99.90
16136;DHT22;8173;48.354;9.248;2023-02-22T07:04:59;1.00;99.90
16136;DHT22;8173;48.354;9.248;2023-02-22T07:07:27;1.00;99.90
16136;DHT22;8173;48.354;9.248;2023-02-22T07:10:05;0.80;99.90
16136;DHT22;8173;48.354;9.248;2023-02-22T07:12:44;0.70;99.90
16136;DHT22;8173;48.354;9.248;2023-02-22T07:15:19;0.70;99.90
16136;DHT22;8173;48.354;9.248;2023-02-22T07:18:12;0.60;99.90
16136;DHT22;8173;48.354;9.248;2023-02-22T07:21:13;0.80;99.90
16136;DHT22;8173;48.354;9.248;2023-02-22T07:24:03;1.30;99.90
16136;DHT22;8173;48.354;9.248;2023-02-22T07:26:44;1.70;99.90
16136;DHT22;8173;48.354;9.248;2023-02-22T07:32:04;2.00;99.90
16136;DHT22;8173;48.354;9.248;2023-02-22T07:34:45;1.80;99.90
16136;DHT22;8173;48.354;9.248;2023-02-22T07:40:45;1.50;99.90
16136;DHT22;8173;48.354;9.248;2023-02-22T07:43:25;1.60;99.90
16136;DHT22;8173;48.354;9.248;2023-02-22T07:46:10;1.80;99.90
16136;DHT22;8173;48.354;9.248;2023-02-22T07:49:17;2.10;99.90
16136;DHT22;8173;48.354;9.248;2023-02-22T07:51:46;2.20;99.90
16136;DHT22;8173;48.354;9.248;2023-02-22T07:54:13;2.20;99.90
16136;DHT22;8173;48.354;9.248;2023-02-22T07:57:00;2.20;99.90
16136;DHT22;8173;48.354;9.248;2023-02-22T08:00:07;2.10;99.90
16136;DHT22;8173;48.354;9.248;2023-02-22T08:02:35;1.90;99.90
16136;DHT22;8173;48.354;9.248;2023-02-22T08:05:04;1.90;99.90
16136;DHT22;8173;48.354;9.248;2023-02-22T08:07:37;2.10;99.90
16136;DHT22;8173;48.354;9.248;2023-02-22T08:10:22;2.30;99.90
16136;DHT22;8173;48.354;9.248;2023-02-22T08:12:57;2.60;99.90
16136;DHT22;8173;48.354;9.248;2023-02-22T08:16:03;3.00;99.90
16136;DHT22;8173;48.354;9.248;2023-02-22T08:18:55;3.60;99.90
16136;DHT22;8173;48.354;9.248;2023-02-22T08:21:41;4.20;99.90
16136;DHT22;8173;48.354;9.248;2023-02-22T08:24:30;4.70;99.90
16136;DHT22;8173;48.354;9.248;2023-02-22T08:26:58;5.00;99.90
16136;DHT22;8173;48.354;9.248;2023-02-22T08:29:29;5.20;99.90
16136;DHT22;8173;48.354;9.248;2023-02-22T08:32:20;5.20;99.90
16136;DHT22;8173;48.354;9.248;2023-02-22T08:35:00;5.30;99.90
16136;DHT22;8173;48.354;9.248;2023-02-22T08:37:42;5.60;99.90
16136;DHT22;8173;48.354;9.248;2023-02-22T08:40:10;6.20;99.90
16136;DHT22;8173;48.354;9.248;2023-02-22T08:42:51;6.70;99.90
16136;DHT22;8173;48.354;9.248;2023-02-22T08:45:20;7.50;99.90
16136;DHT22;8173;48.354;9.248;2023-02-22T08:47:48;7.90;99.90
16136;DHT22;8173;48.354;9.248;2023-02-22T08:50:17;9.80;99.90
16136;DHT22;8173;48.354;9.248;2023-02-22T08:52:44;9.10;99.90
16136;DHT22;8173;48.354;9.248;2023-02-22T08:55:11;9.70;99.90
16136;DHT22;8173;48.354;9.248;2023-02-22T08:57:45;10.10;99.90
16136;DHT22;8173;48.354;9.248;2023-02-22T09:00:13;10.40;99.90
16136;DHT22;8173;48.354;9.248;2023-02-22T09:02:45;10.70;99.90
16136;DHT22;8173;48.354;9.248;2023-02-22T09:05:12;11.30;99.90
16136;DHT22;8173;48.354;9.248;2023-02-22T09:07:42;11.90;99.90
16136;DHT22;8173;48.354;9.248;2023-02-22T09:10:12;12.20;99.90
16136;DHT22;8173;48.354;9.248;2023-02-22T09:12:40;12.20;99.90
16136;DHT22;8173;48.354;9.248;2023-02-22T09:15:13;12.10;99.90
16136;DHT22;8173;48.354;9.248;2023-02-22T09:17:40;11.60;99.90
16136;DHT22;8173;48.354;9.248;2023-02-22T09:20:38;10.90;99.90
16136;DHT22;8173;48.354;9.248;2023-02-22T09:23:23;10.50;99.90
16136;DHT22;8173;48.354;9.248;2023-02-22T09:25:50;10.20;99.90
16136;DHT22;8173;48.354;9.248;2023-02-22T09:28:31;10.10;99.90
16136;DHT22;8173;48.354;9.248;2023-02-22T09:31:10;10.40;99.90
16136;DHT22;8173;48.354;9.248;2023-02-22T09:33:37;10.50;99.90
16136;DHT22;8173;48.354;9.248;2023-02-22T09:36:06;10.40;99.90
16136;DHT22;8173;48.354;9.248;2023-02-22T09:38:33;10.40;99.90
16136;DHT22;8173;48.354;9.248;2023-02-22T09:41:09;10.60;99.90
16136;DHT22;8173;48.354;9.248;2023-02-22T09:43:42;10.90;99.90
16136;DHT22;8173;48.354;9.248;2023-02-22T09:46:28;10.70;99.90
16136;DHT22;8173;48.354;9.248;2023-02-22T09:49:03;10.60;99.90
16136;DHT22;8173;48.354;9.248;2023-02-22T09:51:40;10.40;99.90
16136;DHT22;8173;48.354;9.248;2023-02-22T09:54:18;10.50;99.90
16136;DHT22;8173;48.354;9.248;2023-02-22T09:56:48;10.60;99.90
16136;DHT22;8173;48.354;9.248;2023-02-22T09:59:21;10.70;99.90
16136;DHT22;8173;48.354;9.248;2023-02-22T10:02:00;10.90;99.90
16136;DHT22;8173;48.354;9.248;2023-02-22T10:04:43;11.20;99.90
16136;DHT22;8173;48.354;9.248;2023-02-22T10:07:21;11.50;99.90
16136;DHT22;8173;48.354;9.248;2023-02-22T10:09:53;11.60;99.90
16136;DHT22;8173;48.354;9.248;2023-02-22T10:12:29;11.80;99.90
16136;DHT22;8173;48.354;9.248;2023-02-22T10:18:35;12.10;99.90
16136;DHT22;8173;48.354;9.248;2023-02-22T10:21:11;12.00;99.90
16136;DHT22;8173;48.354;9.248;2023-02-22T10:23:51;12.70;99.90
16136;DHT22;8173;48.354;9.248;2023-02-22T10:29:08;13.00;99.90
16136;DHT22;8173;48.354;9.248;2023-02-22T10:31:40;13.00;99.90
16136;DHT22;8173;48.354;9.248;2023-02-22T10:34:13;13.10;99.90
16136;DHT22;8173;48.354;9.248;2023-02-22T10:36:57;12.80;99.90
16136;DHT22;8173;48.354;9.248;2023-02-22T10:39:41;12.80;99.90
16136;DHT22;8173;48.354;9.248;2023-02-22T10:42:10;13.10;99.90
16136;DHT22;8173;48.354;9.248;2023-02-22T10:44:51;13.00;99.90
16136;DHT22;8173;48.354;9.248;2023-02-22T10:47:19;13.10;99.90
16136;DHT22;8173;48.354;9.248;2023-02-22T10:49:49;13.40;99.90
16136;DHT22;8173;48.354;9.248;2023-02-22T10:52:23;13.70;99.90
16136;DHT22;8173;48.354;9.248;2023-02-22T10:54:54;13.70;99.90
16136;DHT22;8173;48.354;9.248;2023-02-22T10:57:23;13.70;99.90
16136;DHT22;8173;48.354;9.248;2023-02-22T10:59:51;13.70;99.90
16136;DHT22;8173;48.354;9.248;2023-02-22T11:02:24;13.50;99.90
16136;DHT22;8173;48.354;9.248;2023-02-22T11:04:55;13.80;99.90
16136;DHT22;8173;48.354;9.248;2023-02-22T11:07:26;14.20;99.90
16136;DHT22;8173;48.354;9.248;2023-02-22T11:09:57;14.30;99.90
16136;DHT22;8173;48.354;9.248;2023-02-22T11:12:28;14.40;99.90
16136;DHT22;8173;48.354;9.248;2023-02-22T11:14:55;14.90;99.90
16136;DHT22;8173;48.354;9.248;2023-02-22T11:17:28;15.20;99.90
16136;DHT22;8173;48.354;9.248;2023-02-22T11:19:56;15.40;99.90
16136;DHT22;8173;48.354;9.248;2023-02-22T11:22:26;15.60;99.90
16136;DHT22;8173;48.354;9.248;2023-02-22T11:24:59;16.20;99.90
16136;DHT22;8173;48.354;9.248;2023-02-22T11:27:32;16.90;99.90
16136;DHT22;8173;48.354;9.248;2023-02-22T11:30:21;17.70;99.90
16136;DHT22;8173;48.354;9.248;2023-02-22T11:32:54;18.20;99.90
16136;DHT22;8173;48.354;9.248;2023-02-22T11:35:34;18.10;99.90
16136;DHT22;8173;48.354;9.248;2023-02-22T11:38:16;17.60;99.90
16136;DHT22;8173;48.354;9.248;2023-02-22T11:40:44;17.30;99.30
16136;DHT22;8173;48.354;9.248;2023-02-22T11:43:15;16.80;99.90
16136;DHT22;8173;48.354;9.248;2023-02-22T11:45:58;16.80;99.90
16136;DHT22;8173;48.354;9.248;2023-02-22T11:48:29;17.00;99.90
16136;DHT22;8173;48.354;9.248;2023-02-22T11:51:19;17.20;99.90
16136;DHT22;8173;48.354;9.248;2023-02-22T11:57:02;17.80;99.90
16136;DHT22;8173;48.354;9.248;2023-02-22T11:59:37;18.50;99.90
16136;DHT22;8173;48.354;9.248;2023-02-22T12:02:25;18.60;99.90
16136;DHT22;8173;48.354;9.248;2023-02-22T12:05:11;18.90;99.90
16136;DHT22;8173;48.354;9.248;2023-02-22T12:07:58;19.00;99.90
16136;DHT22;8173;48.354;9.248;2023-02-22T12:10:43;19.20;98.30
16136;DHT22;8173;48.354;9.248;2023-02-22T12:13:33;19.00;96.70
16136;DHT22;8173;48.354;9.248;2023-02-22T12:16:13;19.90;99.20
16136;DHT22;8173;48.354;9.248;2023-02-22T12:18:56;20.20;99.50
16136;DHT22;8173;48.354;9.248;2023-02-22T12:21:27;18.70;98.00
16136;DHT22;8173;48.354;9.248;2023-02-22T12:23:58;18.80;97.60
16136;DHT22;8173;48.354;9.248;2023-02-22T12:26:29;18.50;98.30
16136;DHT22;8173;48.354;9.248;2023-02-22T12:29:03;16.80;99.60
16136;DHT22;8173;48.354;9.248;2023-02-22T12:31:35;16.70;99.90
16136;DHT22;8173;48.354;9.248;2023-02-22T12:34:07;16.10;99.90
16136;DHT22;8173;48.354;9.248;2023-02-22T12:36:39;15.40;99.90
16136;DHT22;8173;48.354;9.248;2023-02-22T12:39:28;16.00;99.90
16136;DHT22;8173;48.354;9.248;2023-02-22T12:41:59;16.10;99.90
16136;DHT22;8173;48.354;9.248;2023-02-22T12:44:33;16.40;99.90
16136;DHT22;8173;48.354;9.248;2023-02-22T12:47:00;16.50;99.90
16136;DHT22;8173;48.354;9.248;2023-02-22T12:49:34;16.00;99.90
16136;DHT22;8173;48.354;9.248;2023-02-22T12:52:09;15.90;99.90
16136;DHT22;8173;48.354;9.248;2023-02-22T12:54:45;15.60;99.90
16136;DHT22;8173;48.354;9.248;2023-02-22T12:57:18;16.70;99.90
16136;DHT22;8173;48.354;9.248;2023-02-22T12:59:49;15.60;99.90
16136;DHT22;8173;48.354;9.248;2023-02-22T13:02:21;15.60;99.90
16136;DHT22;8173;48.354;9.248;2023-02-22T13:04:53;15.70;99.90
16136;DHT22;8173;48.354;9.248;2023-02-22T13:07:31;15.60;99.90
16136;DHT22;8173;48.354;9.248;2023-02-22T13:13:00;15.00;99.90
16136;DHT22;8173;48.354;9.248;2023-02-22T13:15:39;14.30;99.90
16136;DHT22;8173;48.354;9.248;2023-02-22T13:18:12;14.00;99.90
16136;DHT22;8173;48.354;9.248;2023-02-22T13:20:44;13.70;99.90
16136;DHT22;8173;48.354;9.248;2023-02-22T13:23:17;14.10;99.90
16136;DHT22;8173;48.354;9.248;2023-02-22T13:25:51;14.50;99.90
16136;DHT22;8173;48.354;9.248;2023-02-22T13:28:27;14.70;99.90
16136;DHT22;8173;48.354;9.248;2023-02-22T13:31:15;14.80;99.90
16136;DHT22;8173;48.354;9.248;2023-02-22T13:34:11;15.10;99.90
16136;DHT22;8173;48.354;9.248;2023-02-22T13:36:54;14.90;99.90
16136;DHT22;8173;48.354;9.248;2023-02-22T13:39:41;15.20;99.90
16136;DHT22;8173;48.354;9.248;2023-02-22T13:42:32;15.20;99.90
16136;DHT22;8173;48.354;9.248;2023-02-22T13:51:10;12.30;99.90
16136;DHT22;8173;48.354;9.248;2023-02-22T13:53:46;13.50;99.90
16136;DHT22;8173;48.354;9.248;2023-02-22T13:56:16;13.50;99.90
16136;DHT22;8173;48.354;9.248;2023-02-22T13:58:50;13.60;99.90
16136;DHT22;8173;48.354;9.248;2023-02-22T14:01:38;13.70;99.90
16136;DHT22;8173;48.354;9.248;2023-02-22T14:07:44;13.70;99.90
16136;DHT22;8173;48.354;9.248;2023-02-22T14:10:43;13.80;99.90
16136;DHT22;8173;48.354;9.248;2023-02-22T14:13:11;14.10;99.90
16136;DHT22;8173;48.354;9.248;2023-02-22T14:16:22;14.10;99.90
16136;DHT22;8173;48.354;9.248;2023-02-22T14:19:00;14.20;99.90
16136;DHT22;8173;48.354;9.248;2023-02-22T14:21:31;14.40;99.90
16136;DHT22;8173;48.354;9.248;2023-02-22T14:24:06;14.70;99.90
16136;DHT22;8173;48.354;9.248;2023-02-22T14:26:34;14.50;99.90
16136;DHT22;8173;48.354;9.248;2023-02-22T14:29:14;14.50;99.90
16136;DHT22;8173;48.354;9.248;2023-02-22T14:32:01;14.30;99.90
16136;DHT22;8173;48.354;9.248;2023-02-22T14:34:40;14.00;99.90
16136;DHT22;8173;48.354;9.248;2023-02-22T14:37:13;13.80;99.90
16136;DHT22;8173;48.354;9.248;2023-02-22T14:39:43;13.50;99.90
16136;DHT22;8173;48.354;9.248;2023-02-22T14:42:15;13.40;99.90
16136;DHT22;8173;48.354;9.248;2023-02-22T14:44:53;13.50;99.90
16136;DHT22;8173;48.354;9.248;2023-02-22T14:47:27;13.50;99.90
16136;DHT22;8173;48.354;9.248;2023-02-22T14:50:01;13.50;99.90
16136;DHT22;8173;48.354;9.248;2023-02-22T14:52:31;13.40;99.90
16136;DHT22;8173;48.354;9.248;2023-02-22T14:55:17;13.40;99.90
16136;DHT22;8173;48.354;9.248;2023-02-22T14:57:57;13.60;99.90
16136;DHT22;8173;48.354;9.248;2023-02-22T15:00:27;13.60;99.90
16136;DHT22;8173;48.354;9.248;2023-02-22T15:03:24;13.50;99.90
16136;DHT22;8173;48.354;9.248;2023-02-22T15:05:54;13.70;99.90
16136;DHT22;8173;48.354;9.248;2023-02-22T15:08:24;13.70;99.90
16136;DHT22;8173;48.354;9.248;2023-02-22T15:10:53;13.50;99.90
16136;DHT22;8173;48.354;9.248;2023-02-22T15:13:22;13.20;99.90
16136;DHT22;8173;48.354;9.248;2023-02-22T15:15:54;12.90;99.90
16136;DHT22;8173;48.354;9.248;2023-02-22T15:18:27;12.80;99.90
16136;DHT22;8173;48.354;9.248;2023-02-22T15:20:57;12.70;99.90
16136;DHT22;8173;48.354;9.248;2023-02-22T15:23:26;12.60;99.90
16136;DHT22;8173;48.354;9.248;2023-02-22T15:25:55;12.60;99.90
16136;DHT22;8173;48.354;9.248;2023-02-22T15:28:26;12.60;99.90
16136;DHT22;8173;48.354;9.248;2023-02-22T15:31:14;12.70;99.90
16136;DHT22;8173;48.354;9.248;2023-02-22T15:33:43;12.60;99.90
16136;DHT22;8173;48.354;9.248;2023-02-22T15:36:14;12.70;99.90
16136;DHT22;8173;48.354;9.248;2023-02-22T15:38:46;14.40;99.90
16136;DHT22;8173;48.354;9.248;2023-02-22T15:41:22;12.50;99.90
16136;DHT22;8173;48.354;9.248;2023-02-22T15:44:00;12.30;99.90
16136;DHT22;8173;48.354;9.248;2023-02-22T15:46:29;12.10;99.90
16136;DHT22;8173;48.354;9.248;2023-02-22T15:49:18;13.50;99.90
16136;DHT22;8173;48.354;9.248;2023-02-22T15:51:46;12.10;99.90
16136;DHT22;8173;48.354;9.248;2023-02-22T15:54:16;12.10;99.90
16136;DHT22;8173;48.354;9.248;2023-02-22T15:56:48;12.00;99.90
16136;DHT22;8173;48.354;9.248;2023-02-22T15:59:20;11.80;99.90
16136;DHT22;8173;48.354;9.248;2023-02-22T16:01:53;11.70;99.90
16136;DHT22;8173;48.354;9.248;2023-02-22T16:04:28;11.60;99.90
16136;DHT22;8173;48.354;9.248;2023-02-22T16:07:06;11.40;99.90
16136;DHT22;8173;48.354;9.248;2023-02-22T16:09:45;13.00;99.90
16136;DHT22;8173;48.354;9.248;2023-02-22T16:12:43;11.30;99.90
16136;DHT22;8173;48.354;9.248;2023-02-22T16:15:20;11.20;99.90
16136;DHT22;8173;48.354;9.248;2023-02-22T16:18:24;11.00;99.90
16136;DHT22;8173;48.354;9.248;2023-02-22T16:21:12;12.50;99.90
16136;DHT22;8173;48.354;9.248;2023-02-22T16:23:45;10.80;99.90
16136;DHT22;8173;48.354;9.248;2023-02-22T16:26:27;10.60;99.90
16136;DHT22;8173;48.354;9.248;2023-02-22T16:29:24;10.40;99.90
16136;DHT22;8173;48.354;9.248;2023-02-22T16:32:05;10.30;99.90
16136;DHT22;8173;48.354;9.248;2023-02-22T16:34:48;10.20;99.90
16136;DHT22;8173;48.354;9.248;2023-02-22T16:37:32;10.10;99.90
16136;DHT22;8173;48.354;9.248;2023-02-22T16:40:22;10.10;99.90
16136;DHT22;8173;48.354;9.248;2023-02-22T16:43:05;12.00;99.90
16136;DHT22;8173;48.354;9.248;2023-02-22T16:45:47;9.90;99.90
16136;DHT22;8173;48.354;9.248;2023-02-22T16:48:18;9.80;99.90
16136;DHT22;8173;48.354;9.248;2023-02-22T16:51:00;9.60;99.90
16136;DHT22;8173;48.354;9.248;2023-02-22T16:53:40;9.50;99.90
16136;DHT22;8173;48.354;9.248;2023-02-22T16:56:16;9.30;99.90
16136;DHT22;8173;48.354;9.248;2023-02-22T16:58:53;9.20;99.90
16136;DHT22;8173;48.354;9.248;2023-02-22T17:04:39;9.00;99.90
16136;DHT22;8173;48.354;9.248;2023-02-22T17:07:17;8.90;99.90
16136;DHT22;8173;48.354;9.248;2023-02-22T17:10:13;8.90;99.90
16136;DHT22;8173;48.354;9.248;2023-02-22T17:12:55;8.80;99.90
16136;DHT22;8173;48.354;9.248;2023-02-22T17:16:02;8.80;99.90
16136;DHT22;8173;48.354;9.248;2023-02-22T17:21:47;8.70;99.90
16136;DHT22;8173;48.354;9.248;2023-02-22T17:24:42;8.70;99.90
16136;DHT22;8173;48.354;9.248;2023-02-22T17:27:13;8.60;99.90
16136;DHT22;8173;48.354;9.248;2023-02-22T17:29:54;10.50;99.90
16136;DHT22;8173;48.354;9.248;2023-02-22T17:32:21;8.50;99.90
16136;DHT22;8173;48.354;9.248;2023-02-22T17:35:02;8.40;99.90
16136;DHT22;8173;48.354;9.248;2023-02-22T17:37:41;8.30;99.90
16136;DHT22;8173;48.354;9.248;2023-02-22T17:40:26;8.20;99.90
16136;DHT22;8173;48.354;9.248;2023-02-22T17:43:29;8.10;99.90
16136;DHT22;8173;48.354;9.248;2023-02-22T17:45:57;8.10;99.90
16136;DHT22;8173;48.354;9.248;2023-02-22T17:48:39;7.90;99.90
16136;DHT22;8173;48.354;9.248;2023-02-22T17:51:24;7.80;99.90
16136;DHT22;8173;48.354;9.248;2023-02-22T17:53:51;7.70;99.90
16136;DHT22;8173;48.354;9.248;2023-02-22T17:56:39;7.70;99.90
16136;DHT22;8173;48.354;9.248;2023-02-22T18:00:05;7.70;99.90
16136;DHT22;8173;48.354;9.248;2023-02-22T18:02:38;7.70;99.90
16136;DHT22;8173;48.354;9.248;2023-02-22T18:10:55;7.80;99.90
16136;DHT22;8173;48.354;9.248;2023-02-22T18:13:25;7.70;99.90
16136;DHT22;8173;48.354;9.248;2023-02-22T18:15:57;7.70;99.90
16136;DHT22;8173;48.354;9.248;2023-02-22T18:19:32;7.70;99.90
16136;DHT22;8173;48.354;9.248;2023-02-22T18:29:31;7.70;99.90
16136;DHT22;8173;48.354;9.248;2023-02-22T18:31:58;7.60;99.90
16136;DHT22;8173;48.354;9.248;2023-02-22T18:34:25;7.60;99.90
16136;DHT22;8173;48.354;9.248;2023-02-22T18:37:13;7.70;99.90
16136;DHT22;8173;48.354;9.248;2023-02-22T18:45:23;7.60;99.90
16136;DHT22;8173;48.354;9.248;2023-02-22T18:47:56;7.60;99.90
16136;DHT22;8173;48.354;9.248;2023-02-22T18:50:31;7.60;99.90
16136;DHT22;8173;48.354;9.248;2023-02-22T18:53:13;7.60;99.90
16136;DHT22;8173;48.354;9.248;2023-02-22T18:55:55;7.60;99.90
16136;DHT22;8173;48.354;9.248;2023-02-22T18:58:22;7.60;99.90
16136;DHT22;8173;48.354;9.248;2023-02-22T19:00:55;7.80;99.90
16136;DHT22;8173;48.354;9.248;2023-02-22T19:03:52;7.50;99.90
16136;DHT22;8173;48.354;9.248;2023-02-22T19:06:39;7.50;99.90
16136;DHT22;8173;48.354;9.248;2023-02-22T19:13:05;7.50;99.90
16136;DHT22;8173;48.354;9.248;2023-02-22T19:15:36;7.40;99.90
16136;DHT22;8173;48.354;9.248;2023-02-22T19:18:06;7.40;99.90
16136;DHT22;8173;48.354;9.248;2023-02-22T19:23:39;7.50;99.90
16136;DHT22;8173;48.354;9.248;2023-02-22T19:26:53;7.50;99.90